Island Breeze — WDA3596 — position and weather

sailwx.info

Track history (hours):
 
Tides and Currents Weather Stations Pressure Air Temp Water Temp Dewpoint Dewpoint Depression Visibility Wind Speed Wind Dir Waves Ship Positions

Island Breeze

Owner: Island Tug & Barge Co., Seattle, WA. More information available from US FCC via Universal Licensing System and Coast Guard Vessel Documentation Center.

Last reported at 2015-Mar-04 23:33 UTC. Time now 2015-Mar-05 00:17 UTC.
Position N 47°16' W 122°26'.

Length 18 m.

Type: Tug. MMSI: 366800090.

Date/timePositionNaut miles runAvg speedWind from/ knotsBaromVisibWave heightAir tempDewpointWater temp
2015-Mar-04 23:33N 47°16' W 122°26'1 1.3
2015-Mar-04 22:33N 47°16' W 122°24'2 1.9
2015-Mar-04 21:33N 47°17' W 122°27'5 4.6
2015-Mar-04 20:33N 47°19' W 122°33'5 4.9
2015-Mar-04 19:33N 47°14' W 122°35'6 6.1
2015-Mar-04 18:33N 47°09' W 122°39'1 0.7
2015-Mar-04 17:26N 47°08' W 122°39'0 0.0
2015-Mar-04 16:33N 47°08' W 122°39'6 6.0
2015-Mar-04 15:33N 47°14' W 122°35'6 5.6
2015-Mar-04 14:33N 47°19' W 122°33'7 6.7
2015-Mar-04 13:33N 47°16' W 122°24'3 2.5
2015-Mar-04 12:33N 47°17' W 122°28'7 6.7
2015-Mar-04 11:33N 47°23' W 122°32'4 7.8
2015-Mar-04 10:59N 47°27' W 122°31'4 8.6
2015-Mar-04 10:33N 47°31' W 122°29'4 8.2
2015-Mar-04 10:04N 47°35' W 122°28'4 8.5
2015-Mar-04 09:33N 47°39' W 122°28'1 7.8
2015-Mar-04 09:29N 47°40' W 122°28'3 3.2
2015-Mar-04 08:33N 47°40' W 122°24'0 1.8
2015-Mar-04 08:29N 47°40' W 122°24'4 4.3
2015-Mar-04 07:30N 47°39' W 122°17'0 6.6
2015-Mar-04 07:28N 47°39' W 122°17'6 6.5
2015-Mar-04 06:33N 47°45' W 122°16'1 0.8
2015-Mar-04 05:33N 47°45' W 122°15'0 0.1
2015-Mar-04 04:33N 47°45' W 122°15'1 2.1
2015-Mar-04 04:08N 47°45' W 122°16'4 6.2
2015-Mar-04 03:33N 47°41' W 122°15'1 6.2
2015-Mar-04 03:23N 47°40' W 122°15'4 4.4
2015-Mar-04 02:33N 47°39' W 122°20'0 4.3
2015-Mar-04 02:28N 47°39' W 122°20'3 3.0
2015-Mar-04 01:33N 47°40' W 122°24'0 0.0
2015-Mar-04 01:28N 47°40' W 122°24'0 0.5
2015-Mar-04 00:33N 47°40' W 122°24'013.4
2015-Mar-04 00:33N 47°40' W 122°24'4 3.5
2015-Mar-03 23:33N 47°37' W 122°27'0108.0
2015-Mar-03 23:33N 47°37' W 122°27'6 5.8
2015-Mar-03 22:33N 47°31' W 122°29'0 6.7
2015-Mar-03 22:32N 47°31' W 122°29'6 6.4
2015-Mar-03 21:33N 47°25' W 122°32'4 6.5
2015-Mar-03 20:57N 47°21' W 122°32'2 6.0
2015-Mar-03 20:33N 47°19' W 122°33'5 4.9
2015-Mar-03 19:33N 47°14' W 122°34'7 6.8
2015-Mar-03 18:33N 47°08' W 122°39'0 0.2
2015-Mar-03 17:33N 47°08' W 122°39'0 0.0
2015-Mar-03 16:30N 47°08' W 122°39'0 0.0
2015-Mar-03 15:33N 47°08' W 122°39'0 0.0
2015-Mar-03 14:32N 47°08' W 122°39'0 0.5
2015-Mar-03 13:33N 47°09' W 122°39'0 0.1
2015-Mar-03 12:33N 47°09' W 122°38'0 0.0
2015-Mar-03 11:33N 47°09' W 122°38'0 0.0
2015-Mar-03 10:33N 47°09' W 122°38'3 3.4
2015-Mar-03 09:33N 47°12' W 122°36'8 8.4
2015-Mar-03 08:33N 47°19' W 122°31'2 7.0
2015-Mar-03 08:13N 47°18' W 122°28'5 5.6
2015-Mar-03 07:23N 47°16' W 122°22'1 0.6
2015-Mar-03 06:33N 47°16' W 122°22'3 2.8
2015-Mar-03 05:33N 47°17' W 122°25'1 0.6
2015-Mar-03 04:33N 47°18' W 122°26'0 0.0
2015-Mar-03 03:33N 47°18' W 122°26'0 0.0
2015-Mar-03 02:33N 47°18' W 122°26'0 0.0
2015-Mar-03 01:33N 47°18' W 122°26'0 0.0
2015-Mar-03 00:33N 47°18' W 122°26'0 0.6
2015-Mar-02 23:41N 47°18' W 122°27'1 6.1
2015-Mar-02 23:33N 47°18' W 122°28'1 6.1
2015-Mar-02 23:21N 47°18' W 122°29'2 3.1
2015-Mar-02 22:33N 47°17' W 122°33'6 5.7
2015-Mar-02 21:32N 47°12' W 122°37'4 4.4
2015-Mar-02 20:32N 47°08' W 122°39'1 0.6
2015-Mar-02 19:33N 47°09' W 122°38'0 0.0
2015-Mar-02 18:33N 47°09' W 122°38'1 0.7
2015-Mar-02 17:26N 47°09' W 122°39'7 7.7
2015-Mar-02 16:33N 47°15' W 122°34'4 4.3
2015-Mar-02 15:33N 47°18' W 122°29'4 2.4
2015-Mar-02 14:05N 47°17' W 122°24'1 2.1
2015-Mar-02 13:33N 47°18' W 122°26'7 6.8
2015-Mar-02 12:33N 47°23' W 122°32'5 8.2
2015-Mar-02 11:55N 47°28' W 122°31'3 8.6
2015-Mar-02 11:33N 47°31' W 122°29'0 9.2
2015-Mar-02 11:30N 47°31' W 122°29'6 5.9
2015-Mar-02 10:33N 47°35' W 122°22'0 0.0
2015-Mar-02 10:31N 47°35' W 122°22'2 1.6
2015-Mar-02 09:33N 47°34' W 122°21'0 0.1
2015-Mar-02 09:31N 47°34' W 122°21'1 0.7
2015-Mar-02 08:33N 47°34' W 122°21'0 0.0
2015-Mar-02 08:31N 47°34' W 122°21'0 0.0
2015-Feb-28 14:21N 47°34' W 122°21'0 0.0
2015-Feb-28 14:20N 47°34' W 122°21'0 0.0
2015-Feb-28 13:31N 47°34' W 122°21'0 0.0
2015-Feb-28 13:30N 47°34' W 122°21'0 0.0
2015-Feb-28 12:23N 47°34' W 122°21'0 0.0
2015-Feb-28 12:09N 47°34' W 122°21'0 0.0
2015-Feb-28 11:33N 47°34' W 122°21'0 0.0
2015-Feb-28 11:29N 47°34' W 122°21'1 0.5
2015-Feb-28 10:33N 47°34' W 122°21'0 0.0
2015-Feb-28 10:14N 47°34' W 122°21'1 0.6
2015-Feb-28 09:25N 47°34' W 122°21'0 0.0
2015-Feb-28 09:24N 47°34' W 122°21'0 0.0
2015-Feb-28 08:32N 47°34' W 122°21'0 0.0
2015-Feb-28 07:30N 47°34' W 122°21'1 1.6
2015-Feb-28 06:53N 47°35' W 122°22'1 4.1
2015-Feb-28 06:32N 47°36' W 122°24'4 3.4
2015-Feb-28 05:26N 47°40' W 122°24'2 5.6
2015-Feb-28 05:03N 47°39' W 122°21'3 5.1
2015-Feb-28 04:33N 47°39' W 122°17'0 7.4
2015-Feb-28 04:32N 47°39' W 122°17'6 6.4
2015-Feb-28 03:33N 47°45' W 122°16'0 0.3
2015-Feb-28 02:34N 47°45' W 122°16'0 0.4
2015-Feb-28 01:33N 47°44' W 122°16'5 5.1
2015-Feb-28 00:33N 47°39' W 122°16'3 3.0
2015-Feb-27 23:31N 47°39' W 122°20'0 0.8
2015-Feb-27 23:30N 47°39' W 122°20'3 3.0
2015-Feb-27 22:34N 47°40' W 122°24'0 1.8
2015-Feb-27 22:29N 47°40' W 122°24'2 2.4
2015-Feb-27 21:34N 47°39' W 122°27'0 6.6
2015-Feb-27 21:30N 47°39' W 122°27'7 6.8
2015-Feb-27 20:31N 47°32' W 122°29'7 6.9
2015-Feb-27 19:31N 47°25' W 122°31'5 6.7
2015-Feb-27 18:49N 47°21' W 122°33'2 6.4
2015-Feb-27 18:26N 47°18' W 122°32'5 5.5
2015-Feb-27 17:28N 47°13' W 122°35'6 1.5
2015-Feb-27 13:32N 47°08' W 122°39'0 0.1
2015-Feb-27 10:16N 47°08' W 122°39'5 5.5
2015-Feb-27 09:22N 47°13' W 122°35'6 7.3
2015-Feb-27 08:31N 47°19' W 122°34'7 7.7
2015-Feb-27 07:33N 47°26' W 122°31'8 7.9
2015-Feb-27 06:34N 47°34' W 122°28'2 7.8
2015-Feb-27 06:21N 47°35' W 122°28'6 7.1
2015-Feb-27 05:33N 47°41' W 122°26'1 7.3
2015-Feb-27 05:21N 47°40' W 122°24'3 3.5
2015-Feb-27 04:33N 47°39' W 122°21'5 5.1
2015-Feb-27 03:34N 47°41' W 122°14'4 4.2
2015-Feb-27 02:30N 47°45' W 122°15'1 1.1
2015-Feb-27 01:33N 47°44' W 122°16'4 5.6
2015-Feb-27 00:48N 47°40' W 122°15'2 6.4
2015-Feb-27 00:33N 47°39' W 122°16'2 3.8
2015-Feb-27 00:03N 47°39' W 122°19'1 2.6
2015-Feb-26 23:29N 47°39' W 122°21'2 1.9
2015-Feb-26 22:33N 47°40' W 122°23'0 0.0
2015-Feb-26 22:23N 47°40' W 122°23'1 0.8
2015-Feb-26 21:28N 47°40' W 122°24'1 3.0
2015-Feb-26 21:09N 47°41' W 122°25'4 6.1
2015-Feb-26 20:33N 47°37' W 122°27'1 7.0
2015-Feb-26 20:29N 47°37' W 122°27'6 6.7
2015-Feb-26 19:33N 47°31' W 122°29'3 7.0
2015-Feb-26 19:04N 47°28' W 122°31'4 6.9
2015-Feb-26 18:34N 47°24' W 122°32'1 6.7
2015-Feb-26 18:29N 47°24' W 122°32'6 6.4
2015-Feb-26 17:34N 47°18' W 122°32'5 5.0
2015-Feb-26 16:34N 47°13' W 122°35'6 5.4
2015-Feb-26 15:31N 47°08' W 122°39'0 0.0
2015-Feb-26 14:19N 47°08' W 122°39'0 0.0
2015-Feb-26 13:29N 47°08' W 122°39'0 0.0
2015-Feb-26 12:33N 47°08' W 122°39'0 0.0
2015-Feb-26 11:23N 47°08' W 122°39'0 0.0
2015-Feb-26 10:33N 47°08' W 122°39'0 0.0
2015-Feb-26 09:31N 47°08' W 122°39'1 0.5
2015-Feb-26 07:33N 47°09' W 122°39'8 7.5
2015-Feb-26 06:32N 47°16' W 122°33'7 7.7
2015-Feb-26 05:34N 47°23' W 122°32'4 7.4
2015-Feb-26 04:58N 47°28' W 122°31'3 7.4
2015-Feb-26 04:34N 47°30' W 122°29'4 7.9
2015-Feb-26 04:02N 47°34' W 122°26'3 6.5
2015-Feb-26 03:33N 47°36' W 122°23'1 2.9
2015-Feb-26 03:21N 47°35' W 122°22'1 1.4
2015-Feb-26 02:27N 47°34' W 122°21'0 3.0
2015-Feb-26 02:20N 47°34' W 122°21'0 0.1
2015-Feb-26 01:32N 47°34' W 122°21'1 0.6
2015-Feb-26 00:43N 47°34' W 122°21'0 0.0
2015-Feb-26 00:32N 47°34' W 122°21'0 0.0
2015-Feb-26 00:23N 47°34' W 122°21'0 0.0
2015-Feb-25 23:33N 47°34' W 122°21'0 0.0
2015-Feb-25 23:33N 47°34' W 122°21'0 0.0
2015-Feb-25 22:33N 47°34' W 122°21'0 0.2
2015-Feb-25 22:32N 47°34' W 122°21'0 0.0
2015-Feb-25 21:19N 47°34' W 122°21'0 0.0
2015-Feb-25 21:17N 47°34' W 122°21'0 0.0
2015-Feb-25 20:31N 47°34' W 122°21'0 0.0
2015-Feb-25 20:27N 47°34' W 122°21'0 0.5
2015-Feb-25 19:33N 47°34' W 122°21'0 2.7
2015-Feb-25 19:32N 47°34' W 122°21'0 0.1
2015-Feb-25 18:29N 47°34' W 122°21'1 1.0
2015-Feb-25 17:33N 47°35' W 122°22'1 3.6
2015-Feb-25 17:21N 47°36' W 122°22'3 3.6
2015-Feb-25 16:31N 47°33' W 122°20'0 0.3
2015-Feb-25 16:20N 47°33' W 122°20'3 3.7
2015-Feb-25 15:33N 47°35' W 122°22'1 5.2
2015-Feb-25 15:25N 47°36' W 122°23'5 5.9
2015-Feb-25 14:33N 47°33' W 122°28'4 6.5
2015-Feb-25 13:59N 47°29' W 122°30'3 6.6
2015-Feb-25 13:34N 47°26' W 122°31'7 6.8
2015-Feb-25 12:32N 47°20' W 122°33'6 6.7
2015-Feb-25 11:33N 47°13' W 122°35'1 0.7
2015-Feb-25 10:33N 47°14' W 122°35'5 5.2
2015-Feb-25 09:33N 47°19' W 122°34'6 6.0
2015-Feb-25 08:34N 47°25' W 122°32'6 6.2
2015-Feb-25 07:34N 47°31' W 122°29'7 6.6
2015-Feb-25 06:33N 47°36' W 122°23'1 0.9
2015-Feb-25 05:33N 47°37' W 122°24'2 7.9
2015-Feb-25 05:16N 47°38' W 122°26'2 3.1
2015-Feb-25 04:33N 47°40' W 122°24'0 1.0
2015-Feb-25 04:26N 47°40' W 122°24'5 5.6
2015-Feb-25 03:31N 47°39' W 122°16'6 6.3
2015-Feb-25 02:31N 47°45' W 122°16'0 0.1
2015-Feb-25 01:34N 47°45' W 122°16'1 1.0
2015-Feb-25 00:33N 47°44' W 122°16'5 5.1
2015-Feb-24 23:29N 47°39' W 122°18'3 3.3
2015-Feb-24 22:43N 47°39' W 122°21'1 3.9
2015-Feb-24 22:30N 47°39' W 122°22'1 2.1
2015-Feb-24 21:53N 47°40' W 122°24'1 3.5
2015-Feb-24 21:33N 47°41' W 122°25'0 3.0
2015-Feb-24 21:32N 47°41' W 122°25'2 1.8
2015-Feb-24 20:33N 47°39' W 122°27'0 5.8
2015-Feb-24 20:33N 47°39' W 122°27'7 6.8
2015-Feb-24 19:33N 47°33' W 122°28'2 8.1
2015-Feb-24 19:16N 47°31' W 122°29'6 8.0
2015-Feb-24 18:34N 47°25' W 122°32'7 7.4
2015-Feb-24 17:33N 47°18' W 122°33'7 6.7
2015-Feb-24 16:34N 47°12' W 122°37'4 3.8
2015-Feb-24 15:33N 47°08' W 122°39'0 0.0
2015-Feb-24 14:15N 47°08' W 122°39'1 0.2
2015-Feb-24 10:30N 47°09' W 122°39'7 6.9
2015-Feb-24 09:30N 47°15' W 122°35'5 5.4
2015-Feb-24 08:30N 47°21' W 122°33'6 6.7
2015-Feb-24 07:34N 47°27' W 122°31'7 6.9
2015-Feb-24 06:32N 47°33' W 122°27'4 3.5
2015-Feb-24 05:25N 47°34' W 122°21'0 2.3
2015-Feb-24 05:23N 47°34' W 122°21'  
Track history (hours):
 
Tides and Currents Weather Stations Pressure Air Temp Water Temp Dewpoint Dewpoint Depression Visibility Wind Speed Wind Dir Waves Ship Positions

Island Breeze

Owner: Island Tug & Barge Co., Seattle, WA. More information available from US FCC via Universal Licensing System and Coast Guard Vessel Documentation Center.

Last reported at 2015-Mar-04 23:33 UTC. Time now 2015-Mar-05 00:17 UTC.
Position N 47°16' W 122°26'.

Length 18 m.

Type: Tug. MMSI: 366800090.

Date/timePositionNaut miles runAvg speedWind from/ knotsBaromVisibWave heightAir tempDewpointWater temp
2015-Mar-04 23:33N 47°16' W 122°26'1 1.3
2015-Mar-04 22:33N 47°16' W 122°24'2 1.9
2015-Mar-04 21:33N 47°17' W 122°27'5 4.6
2015-Mar-04 20:33N 47°19' W 122°33'5 4.9
2015-Mar-04 19:33N 47°14' W 122°35'6 6.1
2015-Mar-04 18:33N 47°09' W 122°39'1 0.7
2015-Mar-04 17:26N 47°08' W 122°39'0 0.0
2015-Mar-04 16:33N 47°08' W 122°39'6 6.0
2015-Mar-04 15:33N 47°14' W 122°35'6 5.6
2015-Mar-04 14:33N 47°19' W 122°33'7 6.7
2015-Mar-04 13:33N 47°16' W 122°24'3 2.5
2015-Mar-04 12:33N 47°17' W 122°28'7 6.7
2015-Mar-04 11:33N 47°23' W 122°32'4 7.8
2015-Mar-04 10:59N 47°27' W 122°31'4 8.6
2015-Mar-04 10:33N 47°31' W 122°29'4 8.2
2015-Mar-04 10:04N 47°35' W 122°28'4 8.5
2015-Mar-04 09:33N 47°39' W 122°28'1 7.8
2015-Mar-04 09:29N 47°40' W 122°28'3 3.2
2015-Mar-04 08:33N 47°40' W 122°24'0 1.8
2015-Mar-04 08:29N 47°40' W 122°24'4 4.3
2015-Mar-04 07:30N 47°39' W 122°17'0 6.6
2015-Mar-04 07:28N 47°39' W 122°17'6 6.5
2015-Mar-04 06:33N 47°45' W 122°16'1 0.8
2015-Mar-04 05:33N 47°45' W 122°15'0 0.1
2015-Mar-04 04:33N 47°45' W 122°15'1 2.1
2015-Mar-04 04:08N 47°45' W 122°16'4 6.2
2015-Mar-04 03:33N 47°41' W 122°15'1 6.2
2015-Mar-04 03:23N 47°40' W 122°15'4 4.4
2015-Mar-04 02:33N 47°39' W 122°20'0 4.3
2015-Mar-04 02:28N 47°39' W 122°20'3 3.0
2015-Mar-04 01:33N 47°40' W 122°24'0 0.0
2015-Mar-04 01:28N 47°40' W 122°24'0 0.5
2015-Mar-04 00:33N 47°40' W 122°24'013.4
2015-Mar-04 00:33N 47°40' W 122°24'4 3.5
2015-Mar-03 23:33N 47°37' W 122°27'0108.0
2015-Mar-03 23:33N 47°37' W 122°27'6 5.8
2015-Mar-03 22:33N 47°31' W 122°29'0 6.7
2015-Mar-03 22:32N 47°31' W 122°29'6 6.4
2015-Mar-03 21:33N 47°25' W 122°32'4 6.5
2015-Mar-03 20:57N 47°21' W 122°32'2 6.0
2015-Mar-03 20:33N 47°19' W 122°33'5 4.9
2015-Mar-03 19:33N 47°14' W 122°34'7 6.8
2015-Mar-03 18:33N 47°08' W 122°39'0 0.2
2015-Mar-03 17:33N 47°08' W 122°39'0 0.0
2015-Mar-03 16:30N 47°08' W 122°39'0 0.0
2015-Mar-03 15:33N 47°08' W 122°39'0 0.0
2015-Mar-03 14:32N 47°08' W 122°39'0 0.5
2015-Mar-03 13:33N 47°09' W 122°39'0 0.1
2015-Mar-03 12:33N 47°09' W 122°38'0 0.0
2015-Mar-03 11:33N 47°09' W 122°38'0 0.0
2015-Mar-03 10:33N 47°09' W 122°38'3 3.4
2015-Mar-03 09:33N 47°12' W 122°36'8 8.4
2015-Mar-03 08:33N 47°19' W 122°31'2 7.0
2015-Mar-03 08:13N 47°18' W 122°28'5 5.6
2015-Mar-03 07:23N 47°16' W 122°22'1 0.6
2015-Mar-03 06:33N 47°16' W 122°22'3 2.8
2015-Mar-03 05:33N 47°17' W 122°25'1 0.6
2015-Mar-03 04:33N 47°18' W 122°26'0 0.0
2015-Mar-03 03:33N 47°18' W 122°26'0 0.0
2015-Mar-03 02:33N 47°18' W 122°26'0 0.0
2015-Mar-03 01:33N 47°18' W 122°26'0 0.0
2015-Mar-03 00:33N 47°18' W 122°26'0 0.6
2015-Mar-02 23:41N 47°18' W 122°27'1 6.1
2015-Mar-02 23:33N 47°18' W 122°28'1 6.1
2015-Mar-02 23:21N 47°18' W 122°29'2 3.1
2015-Mar-02 22:33N 47°17' W 122°33'6 5.7
2015-Mar-02 21:32N 47°12' W 122°37'4 4.4
2015-Mar-02 20:32N 47°08' W 122°39'1 0.6
2015-Mar-02 19:33N 47°09' W 122°38'0 0.0
2015-Mar-02 18:33N 47°09' W 122°38'1 0.7
2015-Mar-02 17:26N 47°09' W 122°39'7 7.7
2015-Mar-02 16:33N 47°15' W 122°34'4 4.3
2015-Mar-02 15:33N 47°18' W 122°29'4 2.4
2015-Mar-02 14:05N 47°17' W 122°24'1 2.1
2015-Mar-02 13:33N 47°18' W 122°26'7 6.8
2015-Mar-02 12:33N 47°23' W 122°32'5 8.2
2015-Mar-02 11:55N 47°28' W 122°31'3 8.6
2015-Mar-02 11:33N 47°31' W 122°29'0 9.2
2015-Mar-02 11:30N 47°31' W 122°29'6 5.9
2015-Mar-02 10:33N 47°35' W 122°22'0 0.0
2015-Mar-02 10:31N 47°35' W 122°22'2 1.6
2015-Mar-02 09:33N 47°34' W 122°21'0 0.1
2015-Mar-02 09:31N 47°34' W 122°21'1 0.7
2015-Mar-02 08:33N 47°34' W 122°21'0 0.0
2015-Mar-02 08:31N 47°34' W 122°21'0 0.0
2015-Feb-28 14:21N 47°34' W 122°21'0 0.0
2015-Feb-28 14:20N 47°34' W 122°21'0 0.0
2015-Feb-28 13:31N 47°34' W 122°21'0 0.0
2015-Feb-28 13:30N 47°34' W 122°21'0 0.0
2015-Feb-28 12:23N 47°34' W 122°21'0 0.0
2015-Feb-28 12:09N 47°34' W 122°21'0 0.0
2015-Feb-28 11:33N 47°34' W 122°21'0 0.0
2015-Feb-28 11:29N 47°34' W 122°21'1 0.5
2015-Feb-28 10:33N 47°34' W 122°21'0 0.0
2015-Feb-28 10:14N 47°34' W 122°21'1 0.6
2015-Feb-28 09:25N 47°34' W 122°21'0 0.0
2015-Feb-28 09:24N 47°34' W 122°21'0 0.0
2015-Feb-28 08:32N 47°34' W 122°21'0 0.0
2015-Feb-28 07:30N 47°34' W 122°21'1 1.6
2015-Feb-28 06:53N 47°35' W 122°22'1 4.1
2015-Feb-28 06:32N 47°36' W 122°24'4 3.4
2015-Feb-28 05:26N 47°40' W 122°24'2 5.6
2015-Feb-28 05:03N 47°39' W 122°21'3 5.1
2015-Feb-28 04:33N 47°39' W 122°17'0 7.4
2015-Feb-28 04:32N 47°39' W 122°17'6 6.4
2015-Feb-28 03:33N 47°45' W 122°16'0 0.3
2015-Feb-28 02:34N 47°45' W 122°16'0 0.4
2015-Feb-28 01:33N 47°44' W 122°16'5 5.1
2015-Feb-28 00:33N 47°39' W 122°16'3 3.0
2015-Feb-27 23:31N 47°39' W 122°20'0 0.8
2015-Feb-27 23:30N 47°39' W 122°20'3 3.0
2015-Feb-27 22:34N 47°40' W 122°24'0 1.8
2015-Feb-27 22:29N 47°40' W 122°24'2 2.4
2015-Feb-27 21:34N 47°39' W 122°27'0 6.6
2015-Feb-27 21:30N 47°39' W 122°27'7 6.8
2015-Feb-27 20:31N 47°32' W 122°29'7 6.9
2015-Feb-27 19:31N 47°25' W 122°31'5 6.7
2015-Feb-27 18:49N 47°21' W 122°33'2 6.4
2015-Feb-27 18:26N 47°18' W 122°32'5 5.5
2015-Feb-27 17:28N 47°13' W 122°35'6 1.5
2015-Feb-27 13:32N 47°08' W 122°39'0 0.1
2015-Feb-27 10:16N 47°08' W 122°39'5 5.5
2015-Feb-27 09:22N 47°13' W 122°35'6 7.3
2015-Feb-27 08:31N 47°19' W 122°34'7 7.7
2015-Feb-27 07:33N 47°26' W 122°31'8 7.9
2015-Feb-27 06:34N 47°34' W 122°28'2 7.8
2015-Feb-27 06:21N 47°35' W 122°28'6 7.1
2015-Feb-27 05:33N 47°41' W 122°26'1 7.3
2015-Feb-27 05:21N 47°40' W 122°24'3 3.5
2015-Feb-27 04:33N 47°39' W 122°21'5 5.1
2015-Feb-27 03:34N 47°41' W 122°14'4 4.2
2015-Feb-27 02:30N 47°45' W 122°15'1 1.1
2015-Feb-27 01:33N 47°44' W 122°16'4 5.6
2015-Feb-27 00:48N 47°40' W 122°15'2 6.4
2015-Feb-27 00:33N 47°39' W 122°16'2 3.8
2015-Feb-27 00:03N 47°39' W 122°19'1 2.6
2015-Feb-26 23:29N 47°39' W 122°21'2 1.9
2015-Feb-26 22:33N 47°40' W 122°23'0 0.0
2015-Feb-26 22:23N 47°40' W 122°23'1 0.8
2015-Feb-26 21:28N 47°40' W 122°24'1 3.0
2015-Feb-26 21:09N 47°41' W 122°25'4 6.1
2015-Feb-26 20:33N 47°37' W 122°27'1 7.0
2015-Feb-26 20:29N 47°37' W 122°27'6 6.7
2015-Feb-26 19:33N 47°31' W 122°29'3 7.0
2015-Feb-26 19:04N 47°28' W 122°31'4 6.9
2015-Feb-26 18:34N 47°24' W 122°32'1 6.7
2015-Feb-26 18:29N 47°24' W 122°32'6 6.4
2015-Feb-26 17:34N 47°18' W 122°32'5 5.0
2015-Feb-26 16:34N 47°13' W 122°35'6 5.4
2015-Feb-26 15:31N 47°08' W 122°39'0 0.0
2015-Feb-26 14:19N 47°08' W 122°39'0 0.0
2015-Feb-26 13:29N 47°08' W 122°39'0 0.0
2015-Feb-26 12:33N 47°08' W 122°39'0 0.0
2015-Feb-26 11:23N 47°08' W 122°39'0 0.0
2015-Feb-26 10:33N 47°08' W 122°39'0 0.0
2015-Feb-26 09:31N 47°08' W 122°39'1 0.5
2015-Feb-26 07:33N 47°09' W 122°39'8 7.5
2015-Feb-26 06:32N 47°16' W 122°33'7 7.7
2015-Feb-26 05:34N 47°23' W 122°32'4 7.4
2015-Feb-26 04:58N 47°28' W 122°31'3 7.4
2015-Feb-26 04:34N 47°30' W 122°29'4 7.9
2015-Feb-26 04:02N 47°34' W 122°26'3 6.5
2015-Feb-26 03:33N 47°36' W 122°23'1 2.9
2015-Feb-26 03:21N 47°35' W 122°22'1 1.4
2015-Feb-26 02:27N 47°34' W 122°21'0 3.0
2015-Feb-26 02:20N 47°34' W 122°21'0 0.1
2015-Feb-26 01:32N 47°34' W 122°21'1 0.6
2015-Feb-26 00:43N 47°34' W 122°21'0 0.0
2015-Feb-26 00:32N 47°34' W 122°21'0 0.0
2015-Feb-26 00:23N 47°34' W 122°21'0 0.0
2015-Feb-25 23:33N 47°34' W 122°21'0 0.0
2015-Feb-25 23:33N 47°34' W 122°21'0 0.0
2015-Feb-25 22:33N 47°34' W 122°21'0 0.2
2015-Feb-25 22:32N 47°34' W 122°21'0 0.0
2015-Feb-25 21:19N 47°34' W 122°21'0 0.0
2015-Feb-25 21:17N 47°34' W 122°21'0 0.0
2015-Feb-25 20:31N 47°34' W 122°21'0 0.0
2015-Feb-25 20:27N 47°34' W 122°21'0 0.5
2015-Feb-25 19:33N 47°34' W 122°21'0 2.7
2015-Feb-25 19:32N 47°34' W 122°21'0 0.1
2015-Feb-25 18:29N 47°34' W 122°21'1 1.0
2015-Feb-25 17:33N 47°35' W 122°22'1 3.6
2015-Feb-25 17:21N 47°36' W 122°22'3 3.6
2015-Feb-25 16:31N 47°33' W 122°20'0 0.3
2015-Feb-25 16:20N 47°33' W 122°20'3 3.7
2015-Feb-25 15:33N 47°35' W 122°22'1 5.2
2015-Feb-25 15:25N 47°36' W 122°23'5 5.9
2015-Feb-25 14:33N 47°33' W 122°28'4 6.5
2015-Feb-25 13:59N 47°29' W 122°30'3 6.6
2015-Feb-25 13:34N 47°26' W 122°31'7 6.8
2015-Feb-25 12:32N 47°20' W 122°33'6 6.7
2015-Feb-25 11:33N 47°13' W 122°35'1 0.7
2015-Feb-25 10:33N 47°14' W 122°35'5 5.2
2015-Feb-25 09:33N 47°19' W 122°34'6 6.0
2015-Feb-25 08:34N 47°25' W 122°32'6 6.2
2015-Feb-25 07:34N 47°31' W 122°29'7 6.6
2015-Feb-25 06:33N 47°36' W 122°23'1 0.9
2015-Feb-25 05:33N 47°37' W 122°24'2 7.9
2015-Feb-25 05:16N 47°38' W 122°26'2 3.1
2015-Feb-25 04:33N 47°40' W 122°24'0 1.0
2015-Feb-25 04:26N 47°40' W 122°24'5 5.6
2015-Feb-25 03:31N 47°39' W 122°16'6 6.3
2015-Feb-25 02:31N 47°45' W 122°16'0 0.1
2015-Feb-25 01:34N 47°45' W 122°16'1 1.0
2015-Feb-25 00:33N 47°44' W 122°16'5 5.1
2015-Feb-24 23:29N 47°39' W 122°18'3 3.3
2015-Feb-24 22:43N 47°39' W 122°21'1 3.9
2015-Feb-24 22:30N 47°39' W 122°22'1 2.1
2015-Feb-24 21:53N 47°40' W 122°24'1 3.5
2015-Feb-24 21:33N 47°41' W 122°25'0 3.0
2015-Feb-24 21:32N 47°41' W 122°25'2 1.8
2015-Feb-24 20:33N 47°39' W 122°27'0 5.8
2015-Feb-24 20:33N 47°39' W 122°27'7 6.8
2015-Feb-24 19:33N 47°33' W 122°28'2 8.1
2015-Feb-24 19:16N 47°31' W 122°29'6 8.0
2015-Feb-24 18:34N 47°25' W 122°32'7 7.4
2015-Feb-24 17:33N 47°18' W 122°33'7 6.7
2015-Feb-24 16:34N 47°12' W 122°37'4 3.8
2015-Feb-24 15:33N 47°08' W 122°39'0 0.0
2015-Feb-24 14:15N 47°08' W 122°39'1 0.2
2015-Feb-24 10:30N 47°09' W 122°39'7 6.9
2015-Feb-24 09:30N 47°15' W 122°35'5 5.4
2015-Feb-24 08:30N 47°21' W 122°33'6 6.7
2015-Feb-24 07:34N 47°27' W 122°31'7 6.9
2015-Feb-24 06:32N 47°33' W 122°27'4 3.5
2015-Feb-24 05:25N 47°34' W 122°21'0 2.3
2015-Feb-24 05:23N 47°34' W 122°21'  

Dump ship's entire track history